• Join FlightAware (Why Join?)
  • Login
  • US Flag 
09:13AM EDT


 

Airport Tracker/Info


-or-


 

Live Flight TrackerFlight Track Log ✈ N586JB ✈ 23-Apr-2012 ✈ KJFK - KPBI

Flight Track Log - Related Links

Times and Time Zones

All times are in EDT time to prevent confusion due to time zone crossing. See the N586JB flight status page for this flight to view local times or setup timezone preferences in your user account.

Time Position Orientation Groundspeed Altitude Reporting Facility
EDT Latitude Longitude Course Direction KTS MPH feet Rate Location/Type
01:54PM 40.6210 -73.7543 258° West  Level FlightAware Approximate
01:55PM 40.5312 -73.6791 293° West  Level FlightAware Approximate
01:56PM 40.5997 -73.8897 128° Southeast 209 241 4,000  Level New York Center
01:57PM 40.5578 -73.8194 88° East 190 219 7,000 1,680 Climbing New York Center
01:58PM 40.5600 -73.7294 139° Southeast 224 258 7,400 2,160 Climbing New York Center
01:59PM 40.5072 -73.6700 142° Southeast 234 269 11,500 3,120 Climbing New York Center
02:00PM 40.4403 -73.6017 143° Southeast 277 319 13,600 2,460 Climbing New York Center
02:02PM 40.3306 -73.4936 164° South 305 351 17,900 2,700 Climbing Washington Center
02:03PM 40.2508 -73.4633 177° South 293 337 20,900 2,340 Climbing Washington Center
02:04PM 40.1611 -73.4578 195° South 304 350 22,700 1,200 Climbing Washington Center
02:05PM 40.0742 -73.4875 213° Southwest 323 372 23,300 1,140 Climbing Washington Center
02:06PM 39.9942 -73.5550 211° Southwest 322 371 25,000 1,680 Climbing Washington Center
02:07PM 39.9097 -73.6222 212° Southwest 339 390 26,800 1,680 Climbing Washington Center
02:08PM 39.8233 -73.6922 211° Southwest 361 415 28,500 1,440 Climbing Washington Center
02:09PM 39.7389 -73.7592 212° Southwest 361 415 29,800 1,140 Climbing Washington Center
02:10PM 39.6483 -73.8317 211° Southwest 374 430 30,800 1,200 Climbing Washington Center
02:11PM 39.5578 -73.9011 212° Southwest 384 442 32,200 1,200 Climbing Washington Center
02:12PM 39.4669 -73.9733 215° Southwest 384 442 33,300 1,260 Climbing Washington Center
02:13PM 39.3806 -74.0503 221° Southwest 384 442 34,800 1,380 Climbing Washington Center
02:14PM 39.3003 -74.1406 220° Southwest 384 442 36,100 840 Climbing Washington Center
02:15PM 39.2181 -74.2306 221° Southwest 389 448 36,600 840 Climbing Washington Center
02:16PM 39.1358 -74.3233 219° Southwest 395 455 37,800 660 Climbing Washington Center
02:17PM 39.0533 -74.4103 220° Southwest 400 460 38,000 60 Climbing Washington Center
02:18PM 38.9728 -74.4969 219° Southwest 400 460 38,000 -60 Level Washington Center
02:19PM 38.8903 -74.5836 221° Southwest 400 460 37,900 -60 Descending Washington Center
02:20PM 38.8075 -74.6753 220° Southwest 400 460 37,900  Level Washington Center
02:21PM 38.7247 -74.7642 219° Southwest 400 460 37,900  Level Washington Center
02:22PM 38.6378 -74.8556 219° Southwest 400 460 38,000  Climbing Washington Center
02:23PM 38.5550 -74.9414 221° Southwest 400 460 38,000  Level Washington Center
02:24PM 38.4700 -75.0347 219° Southwest 405 466 38,000  Level Washington Center
02:25PM 38.3847 -75.1228 211° Southwest 399 459 38,000  Level Washington Center
02:26PM 38.3039 -75.1842 208° Southwest 391 450 38,000  Level Washington Center
02:27PM 38.2100 -75.2483 206° Southwest 386 444 38,000  Level Washington Center
02:28PM 38.1144 -75.3067 207° Southwest 386 444 38,000  Level Washington Center
02:29PM 38.0228 -75.3650 206° Southwest 381 438 38,000  Level Washington Center
02:30PM 37.9289 -75.4233 208° Southwest 381 438 38,000  Level Washington Center
02:31PM 37.8331 -75.4867 205° Southwest 381 438 38,000  Level Washington Center
02:32PM 37.7372 -75.5444 207° Southwest 386 444 38,000  Level Washington Center
02:33PM 37.6392 -75.6075 206° Southwest 386 444 38,000  Level Washington Center
02:34PM 37.5411 -75.6678 207° Southwest 392 451 38,000  Level Washington Center
02:35PM 37.4431 -75.7306 206° Southwest 392 451 38,000  Level Washington Center
02:36PM 37.3428 -75.7931 207° Southwest 392 451 38,000  Level Washington Center
02:37PM 37.2447 -75.8553 206° Southwest 392 451 38,000  Level Washington Center
02:38PM 37.1444 -75.9175 206° Southwest 397 457 38,000  Level Washington Center
02:39PM 37.0419 -75.9794 204° Southwest 402 463 38,000  Level Washington Center
02:40PM 36.9272 -76.0439 208° Southwest 411 473 38,000  Level Washington Center
02:41PM 36.8289 -76.1083 206° Southwest 411 473 38,000  Level Washington Center
02:42PM 36.7283 -76.1697 208° Southwest 405 466 38,000  Level Washington Center
02:43PM 36.6278 -76.2364 206° Southwest 405 466 38,000  Level Washington Center
02:44PM 36.5294 -76.2950 206° Southwest 405 466 38,000  Level Washington Center
02:45PM 36.4311 -76.3536 205° Southwest 405 466 38,000  Level Washington Center
02:46PM 36.3306 -76.4119 206° Southwest 405 466 38,000  Level Washington Center
02:47PM 36.2342 -76.4700 207° Southwest 405 466 38,000  Level Washington Center
02:48PM 36.1378 -76.5308 205° Southwest 400 460 38,000  Level Washington Center
02:49PM 36.0372 -76.5886 206° Southwest 395 455 38,000  Level Washington Center
02:50PM 35.9386 -76.6489 206° Southwest 395 455 38,000  Level Washington Center
02:51PM 35.8419 -76.7067 206° Southwest 395 455 38,000  Level Washington Center
02:52PM 35.7456 -76.7642 205° Southwest 389 448 38,000  Level Washington Center
02:53PM 35.6469 -76.8214 207° Southwest 389 448 38,000  Level Washington Center
02:54PM 35.5544 -76.8789 206° Southwest 383 441 38,000  Level Washington Center
02:55PM 35.4664 -76.9308 205° Southwest 391 450 38,000  Level Washington Center
02:56PM 35.3697 -76.9853 206° Southwest 391 450 38,000  Level Washington Center
02:57PM 35.2750 -77.0422 205° Southwest 386 444 38,000  Level Washington Center
02:58PM 35.1764 -77.0989 206° Southwest 386 444 38,000  Level Washington Center
02:59PM 35.0797 -77.1556 206° Southwest 386 444 38,000  Level Washington Center
03:00PM 34.9744 -77.2169 205° Southwest 386 444 38,000  Level Washington Center
03:01PM 34.8778 -77.2731 207° Southwest 386 444 38,000  Level Washington Center
03:02PM 34.7936 -77.3244 206° Southwest 386 444 38,000  Level Washington Center
03:03PM 34.6967 -77.3831 198° South 386 444 38,000  Level Washington Center
03:06PM 34.2903 -77.5419 195° South 382 440 38,000  Level Jacksonville Center
03:07PM 34.1811 -77.5764 195° South 389 448 38,000  Level Jacksonville Center
03:08PM 34.0867 -77.6072 194° South 395 455 38,000  Level Jacksonville Center
03:09PM 33.9794 -77.6386 196° South 395 455 38,000  Level Jacksonville Center
03:10PM 33.8744 -77.6750 195° South 395 455 38,000  Level Jacksonville Center
03:11PM 33.7694 -77.7089 195° South 384 442 38,000  Level Jacksonville Center
03:12PM 33.6644 -77.7425 196° South 394 453 38,000  Level Jacksonville Center
03:13PM 33.5575 -77.7786 195° South 399 459 38,000  Level Jacksonville Center
03:14PM 33.4503 -77.8119 196° South 399 459 38,000  Level Jacksonville Center
03:15PM 33.3433 -77.8481 194° South 399 459 38,000  Level Jacksonville Center
03:16PM 33.2381 -77.8789 196° South 399 459 38,000  Level Jacksonville Center
03:17PM 33.1331 -77.9144 195° South 390 449 38,000  Level Jacksonville Center
03:18PM 33.0281 -77.9475 193° South 395 455 38,000  Level Jacksonville Center
03:19PM 32.9186 -77.9783 196° South 395 455 38,000  Level Jacksonville Center
03:20PM 32.8114 -78.0139 195° South 395 455 38,000  Level Jacksonville Center
03:21PM 32.7061 -78.0467 196° South 395 455 38,000  Level Jacksonville Center
03:22PM 32.6011 -78.0819 194° South 395 455 38,000  Level Jacksonville Center
03:23PM 32.4939 -78.1147 196° South 395 455 38,000  Level Jacksonville Center
03:24PM 32.3886 -78.1497 193° South 395 455 38,000  Level Jacksonville Center
03:25PM 32.2792 -78.1800 197° South 395 455 38,000  Level Jacksonville Center
03:26PM 32.1742 -78.2172 195° South 395 455 38,000  Level Jacksonville Center
03:27PM 32.0711 -78.2494 192° South 395 455 38,000 -60 Level Jacksonville Center
03:28PM 31.9697 -78.2742 195° South 390 449 37,900  Descending Jacksonville Center
03:29PM 31.8664 -78.3061 195° South 390 449 38,000  Climbing Jacksonville Center
03:30PM 31.7611 -78.3383 197° South 390 449 38,000  Level Jacksonville Center
03:31PM 31.6539 -78.3778 194° South 396 456 38,000  Level Jacksonville Center
03:32PM 31.5506 -78.4072 195° South 389 448 38,000 -60 Level Jacksonville Center
03:33PM 31.4453 -78.4414 195° South 395 455 37,900  Descending Jacksonville Center
03:34PM 31.3422 -78.4731 193° South 395 455 38,000  Climbing Jacksonville Center
03:35PM 31.2408 -78.4997 197° South 390 449 38,000  Level Jacksonville Center
03:36PM 31.1336 -78.5386 195° South 395 455 38,000  Level Jacksonville Center
03:37PM 31.0303 -78.5700 194° South 395 455 38,000  Level Jacksonville Center
03:38PM 30.9144 -78.6044 195° South 419 482 38,000 -60 Level Jacksonville Center
03:39PM 30.8072 -78.6383 195° South 407 468 37,900  Descending Jacksonville Center
03:40PM 30.6997 -78.6722 195° South 407 468 38,000  Climbing Jacksonville Center
03:41PM 30.5914 -78.7058 198° South 402 463 38,000  Level Miami Center
03:42PM 30.4889 -78.7450 197° South 418 481 38,000  Level Miami Center
03:43PM 30.3861 -78.7817 196° South 406 467 38,000 -60 Level Miami Center
03:44PM 30.2794 -78.8181 198° South 401 461 37,900 -60 Descending Miami Center
03:45PM 30.1767 -78.8569 197° South 389 448 37,900  Level Miami Center
03:46PM 30.0825 -78.8911 200° South 384 442 37,900  Level Miami Center
03:47PM 29.9986 -78.9256 199° South 375 432 38,000  Climbing Miami Center
03:48PM 29.9019 -78.9644 195° South 364 419 38,000  Level Miami Center
03:49PM 29.8014 -78.9958 188° South 369 425 38,000  Level Miami Center
03:50PM 29.6928 -79.0128 190° South 379 436 38,000  Level Miami Center
03:51PM 29.5903 -79.0344 189° South 384 442 38,000  Level Miami Center
03:52PM 29.4858 -79.0539 188° South 384 442 38,000  Level Miami Center
03:53PM 29.3750 -79.0708 189° South 389 448 38,000  Level Miami Center
03:54PM 29.2703 -79.0900 189° South 389 448 38,000  Level Miami Center
03:55PM 29.1636 -79.1094 190° South 397 457 38,000  Level Miami Center
03:56PM 29.0569 -79.1308 189° South 392 451 38,000  Level Miami Center
03:57PM 28.9461 -79.1500 190° South 392 451 38,000  Level Miami Center
03:58PM 28.8392 -79.1714 189° South 399 459 38,000  Level Miami Center
03:59PM 28.7303 -79.1906 188° South 399 459 38,000 -300 Level Miami Center
04:00PM 28.6175 -79.2094 190° South 404 465 37,500 -1,080 Descending Miami Center
04:01PM 28.5106 -79.2308 188° South 404 465 35,900 -2,460 Descending Miami Center
04:02PM 28.3975 -79.2497 190° South 409 471 32,600 -2,820 Descending Miami Center
04:03PM 28.2928 -79.2711 202° Southwest 409 471 30,300 -1,740 Descending Miami Center
04:04PM 28.1961 -79.3161 206° Southwest 387 445 29,200 -1,020 Descending Miami Center
04:05PM 28.1075 -79.3658 204° Southwest 372 428 28,300 -960 Descending Miami Center
04:06PM 28.0192 -79.4111 206° Southwest 362 417 27,300 -1,020 Descending Miami Center
04:07PM 27.9306 -79.4608 205° Southwest 362 417 26,300 -1,500 Descending Miami Center
04:08PM 27.8336 -79.5125 205° Southwest 355 409 24,400 -2,100 Descending Miami Center
04:09PM 27.7450 -79.5597 205° Southwest 350 403 22,100 -2,400 Descending Miami Center
04:10PM 27.6564 -79.6069 203° Southwest 350 403 19,700 -2,340 Descending Miami Center
04:11PM 27.5764 -79.6447 206° Southwest 350 403 17,500 -2,280 Descending Miami Center
04:12PM 27.4897 -79.6919 205° Southwest 345 397 15,200 -2,400 Descending Miami Center
04:13PM 27.3969 -79.7411 206° Southwest 345 397 12,800 -2,280 Descending Miami Center
04:14PM 27.3147 -79.7858 204° Southwest 345 397 10,700 -1,440 Descending Miami Center
04:15PM 27.2367 -79.8258 204° Southwest 332 382 10,000 -1,020 Descending Miami Center
04:16PM 27.1753 -79.8569 206° Southwest 287 330 8,700 -1,020 Descending Miami Center
04:17PM 27.1100 -79.8925 202° Southwest 275 316 8,000 -480 Descending Miami Center
04:18PM 27.0319 -79.9278 168° South 265 305 7,800 -780 Descending Miami Center
04:19PM 26.9572 -79.9097 170° South 265 305 6,500 -1,200 Descending Miami Center
04:20PM 26.8883 -79.8961 168° South 270 311 5,500 -900 Descending Miami Center
04:21PM 26.8219 -79.8806 245° Southwest 265 305 4,700 -840 Descending Miami Center
04:29PM 26.6987 -80.1794 102° East  Level FlightAware Approximate
04:30PM 26.6773 -80.0640 102° East  Level Estimated